sensor_id;sensor_type;location;lat;lon;timestamp;P1;durP1;ratioP1;P2;durP2;ratioP2
40204;SDS011;26963;42.666;23.366;2023-12-20T00:00:55;31.80;;;22.93;;
40204;SDS011;26963;42.666;23.366;2023-12-20T00:03:21;35.10;;;24.03;;
40204;SDS011;26963;42.666;23.366;2023-12-20T00:05:47;33.33;;;23.67;;
40204;SDS011;26963;42.666;23.366;2023-12-20T00:08:13;36.97;;;24.50;;
40204;SDS011;26963;42.666;23.366;2023-12-20T00:10:38;37.37;;;24.73;;
40204;SDS011;26963;42.666;23.366;2023-12-20T00:13:04;32.83;;;23.23;;
40204;SDS011;26963;42.666;23.366;2023-12-20T00:15:29;36.03;;;23.13;;
40204;SDS011;26963;42.666;23.366;2023-12-20T00:17:55;36.87;;;24.40;;
40204;SDS011;26963;42.666;23.366;2023-12-20T00:20:21;35.73;;;23.80;;
40204;SDS011;26963;42.666;23.366;2023-12-20T00:22:46;32.80;;;22.67;;
40204;SDS011;26963;42.666;23.366;2023-12-20T00:25:12;34.20;;;23.40;;
40204;SDS011;26963;42.666;23.366;2023-12-20T00:27:38;31.03;;;21.93;;
40204;SDS011;26963;42.666;23.366;2023-12-20T00:30:03;32.80;;;22.50;;
40204;SDS011;26963;42.666;23.366;2023-12-20T00:32:29;39.80;;;25.73;;
40204;SDS011;26963;42.666;23.366;2023-12-20T00:34:56;39.73;;;25.77;;
40204;SDS011;26963;42.666;23.366;2023-12-20T00:37:22;37.77;;;25.30;;
40204;SDS011;26963;42.666;23.366;2023-12-20T00:39:48;39.60;;;25.13;;
40204;SDS011;26963;42.666;23.366;2023-12-20T00:42:13;36.77;;;24.00;;
40204;SDS011;26963;42.666;23.366;2023-12-20T00:44:39;39.10;;;24.83;;
40204;SDS011;26963;42.666;23.366;2023-12-20T00:47:04;31.30;;;22.43;;
40204;SDS011;26963;42.666;23.366;2023-12-20T00:49:30;33.00;;;23.23;;
40204;SDS011;26963;42.666;23.366;2023-12-20T00:51:55;35.40;;;22.53;;
40204;SDS011;26963;42.666;23.366;2023-12-20T00:54:21;33.70;;;23.30;;
40204;SDS011;26963;42.666;23.366;2023-12-20T00:56:47;34.63;;;22.83;;
40204;SDS011;26963;42.666;23.366;2023-12-20T00:59:12;31.77;;;21.00;;
40204;SDS011;26963;42.666;23.366;2023-12-20T01:01:38;33.93;;;23.40;;
40204;SDS011;26963;42.666;23.366;2023-12-20T01:04:04;31.80;;;22.80;;
40204;SDS011;26963;42.666;23.366;2023-12-20T01:06:29;34.23;;;23.90;;
40204;SDS011;26963;42.666;23.366;2023-12-20T01:08:55;40.73;;;25.37;;
40204;SDS011;26963;42.666;23.366;2023-12-20T01:11:20;36.80;;;25.80;;
40204;SDS011;26963;42.666;23.366;2023-12-20T01:13:46;33.40;;;23.33;;
40204;SDS011;26963;42.666;23.366;2023-12-20T01:16:12;32.20;;;21.30;;
40204;SDS011;26963;42.666;23.366;2023-12-20T01:18:37;33.60;;;23.47;;
40204;SDS011;26963;42.666;23.366;2023-12-20T01:21:04;35.77;;;24.10;;
40204;SDS011;26963;42.666;23.366;2023-12-20T01:23:30;31.10;;;21.10;;
40204;SDS011;26963;42.666;23.366;2023-12-20T01:25:56;34.28;;;23.08;;
40204;SDS011;26963;42.666;23.366;2023-12-20T01:28:21;33.13;;;23.03;;
40204;SDS011;26963;42.666;23.366;2023-12-20T01:30:47;31.40;;;21.13;;
40204;SDS011;26963;42.666;23.366;2023-12-20T01:33:13;30.43;;;20.73;;
40204;SDS011;26963;42.666;23.366;2023-12-20T01:35:38;30.83;;;21.67;;
40204;SDS011;26963;42.666;23.366;2023-12-20T01:38:04;31.50;;;20.37;;
40204;SDS011;26963;42.666;23.366;2023-12-20T01:40:30;30.03;;;19.67;;
40204;SDS011;26963;42.666;23.366;2023-12-20T01:43:02;33.33;;;23.25;;
40204;SDS011;26963;42.666;23.366;2023-12-20T01:45:32;26.97;;;19.20;;
40204;SDS011;26963;42.666;23.366;2023-12-20T01:47:57;28.73;;;19.50;;
40204;SDS011;26963;42.666;23.366;2023-12-20T01:50:24;31.70;;;20.38;;
40204;SDS011;26963;42.666;23.366;2023-12-20T01:52:50;30.73;;;23.05;;
40204;SDS011;26963;42.666;23.366;2023-12-20T01:55:21;23.63;;;16.77;;
40204;SDS011;26963;42.666;23.366;2023-12-20T01:57:47;36.83;;;25.17;;
40204;SDS011;26963;42.666;23.366;2023-12-20T02:00:13;57.55;;;39.33;;
40204;SDS011;26963;42.666;23.366;2023-12-20T02:02:40;46.60;;;31.27;;
40204;SDS011;26963;42.666;23.366;2023-12-20T02:05:06;50.47;;;35.53;;
40204;SDS011;26963;42.666;23.366;2023-12-20T02:07:32;105.00;;;73.77;;
40204;SDS011;26963;42.666;23.366;2023-12-20T02:10:01;126.07;;;87.23;;
40204;SDS011;26963;42.666;23.366;2023-12-20T02:12:27;125.97;;;93.37;;
40204;SDS011;26963;42.666;23.366;2023-12-20T02:14:52;127.63;;;92.87;;
40204;SDS011;26963;42.666;23.366;2023-12-20T02:17:19;115.50;;;80.20;;
40204;SDS011;26963;42.666;23.366;2023-12-20T02:19:45;122.57;;;89.13;;
40204;SDS011;26963;42.666;23.366;2023-12-20T02:22:11;126.73;;;92.90;;
40204;SDS011;26963;42.666;23.366;2023-12-20T02:24:38;118.60;;;87.60;;
40204;SDS011;26963;42.666;23.366;2023-12-20T02:27:05;130.00;;;92.37;;
40204;SDS011;26963;42.666;23.366;2023-12-20T02:29:32;139.17;;;98.53;;
40204;SDS011;26963;42.666;23.366;2023-12-20T02:31:58;140.97;;;100.67;;
40204;SDS011;26963;42.666;23.366;2023-12-20T02:34:24;134.97;;;97.17;;
40204;SDS011;26963;42.666;23.366;2023-12-20T02:36:50;142.27;;;100.47;;
40204;SDS011;26963;42.666;23.366;2023-12-20T02:39:16;140.60;;;98.70;;
40204;SDS011;26963;42.666;23.366;2023-12-20T02:41:42;137.73;;;102.30;;
40204;SDS011;26963;42.666;23.366;2023-12-20T02:44:08;143.17;;;101.83;;
40204;SDS011;26963;42.666;23.366;2023-12-20T02:46:33;137.77;;;97.57;;
40204;SDS011;26963;42.666;23.366;2023-12-20T02:48:59;122.23;;;85.73;;
40204;SDS011;26963;42.666;23.366;2023-12-20T02:51:25;128.43;;;91.40;;
40204;SDS011;26963;42.666;23.366;2023-12-20T02:53:50;126.20;;;88.60;;
40204;SDS011;26963;42.666;23.366;2023-12-20T02:56:16;130.70;;;87.03;;
40204;SDS011;26963;42.666;23.366;2023-12-20T02:58:41;111.83;;;78.20;;
40204;SDS011;26963;42.666;23.366;2023-12-20T03:01:07;113.53;;;76.57;;
40204;SDS011;26963;42.666;23.366;2023-12-20T03:03:33;98.30;;;61.40;;
40204;SDS011;26963;42.666;23.366;2023-12-20T03:05:59;116.03;;;69.60;;
40204;SDS011;26963;42.666;23.366;2023-12-20T03:08:25;101.43;;;67.70;;
40204;SDS011;26963;42.666;23.366;2023-12-20T03:10:50;101.20;;;69.30;;
40204;SDS011;26963;42.666;23.366;2023-12-20T03:13:16;105.33;;;59.27;;
40204;SDS011;26963;42.666;23.366;2023-12-20T03:15:44;86.77;;;55.50;;
40204;SDS011;26963;42.666;23.366;2023-12-20T03:18:10;105.47;;;61.30;;
40204;SDS011;26963;42.666;23.366;2023-12-20T03:20:36;108.27;;;62.03;;
40204;SDS011;26963;42.666;23.366;2023-12-20T03:23:01;106.97;;;62.80;;
40204;SDS011;26963;42.666;23.366;2023-12-20T03:25:27;102.43;;;66.50;;
40204;SDS011;26963;42.666;23.366;2023-12-20T03:27:53;106.70;;;71.03;;
40204;SDS011;26963;42.666;23.366;2023-12-20T03:30:19;97.73;;;66.90;;
40204;SDS011;26963;42.666;23.366;2023-12-20T03:32:45;95.57;;;65.90;;
40204;SDS011;26963;42.666;23.366;2023-12-20T03:35:12;101.60;;;68.43;;
40204;SDS011;26963;42.666;23.366;2023-12-20T03:37:38;93.13;;;62.57;;
40204;SDS011;26963;42.666;23.366;2023-12-20T03:40:03;92.40;;;64.37;;
40204;SDS011;26963;42.666;23.366;2023-12-20T03:42:30;92.27;;;62.73;;
40204;SDS011;26963;42.666;23.366;2023-12-20T03:44:56;96.37;;;66.63;;
40204;SDS011;26963;42.666;23.366;2023-12-20T03:47:24;94.97;;;64.93;;
40204;SDS011;26963;42.666;23.366;2023-12-20T03:49:49;98.67;;;67.47;;
40204;SDS011;26963;42.666;23.366;2023-12-20T03:52:15;95.20;;;67.07;;
40204;SDS011;26963;42.666;23.366;2023-12-20T03:54:41;93.17;;;63.57;;
40204;SDS011;26963;42.666;23.366;2023-12-20T03:57:09;100.50;;;66.40;;
40204;SDS011;26963;42.666;23.366;2023-12-20T03:59:35;102.17;;;68.97;;
40204;SDS011;26963;42.666;23.366;2023-12-20T04:02:02;101.67;;;68.30;;
40204;SDS011;26963;42.666;23.366;2023-12-20T04:04:28;100.63;;;67.67;;
40204;SDS011;26963;42.666;23.366;2023-12-20T04:06:54;98.33;;;65.60;;
40204;SDS011;26963;42.666;23.366;2023-12-20T04:09:19;93.20;;;64.50;;
40204;SDS011;26963;42.666;23.366;2023-12-20T04:11:45;105.23;;;69.60;;
40204;SDS011;26963;42.666;23.366;2023-12-20T04:14:10;106.13;;;70.27;;
40204;SDS011;26963;42.666;23.366;2023-12-20T04:16:36;105.27;;;69.77;;
40204;SDS011;26963;42.666;23.366;2023-12-20T04:19:02;98.50;;;65.87;;
40204;SDS011;26963;42.666;23.366;2023-12-20T04:21:27;94.87;;;67.63;;
40204;SDS011;26963;42.666;23.366;2023-12-20T04:23:53;93.37;;;66.77;;
40204;SDS011;26963;42.666;23.366;2023-12-20T04:26:19;97.10;;;65.53;;
40204;SDS011;26963;42.666;23.366;2023-12-20T04:28:44;94.83;;;65.83;;
40204;SDS011;26963;42.666;23.366;2023-12-20T04:31:10;94.33;;;65.27;;
40204;SDS011;26963;42.666;23.366;2023-12-20T04:33:36;91.10;;;63.93;;
40204;SDS011;26963;42.666;23.366;2023-12-20T04:36:02;92.40;;;61.90;;
40204;SDS011;26963;42.666;23.366;2023-12-20T04:38:28;95.93;;;62.73;;
40204;SDS011;26963;42.666;23.366;2023-12-20T04:40:54;91.03;;;61.47;;
40204;SDS011;26963;42.666;23.366;2023-12-20T04:43:19;90.50;;;60.37;;
40204;SDS011;26963;42.666;23.366;2023-12-20T04:45:45;106.53;;;62.93;;
40204;SDS011;26963;42.666;23.366;2023-12-20T04:48:10;119.10;;;66.20;;
40204;SDS011;26963;42.666;23.366;2023-12-20T04:50:37;105.60;;;63.20;;
40204;SDS011;26963;42.666;23.366;2023-12-20T04:53:02;108.27;;;63.57;;
40204;SDS011;26963;42.666;23.366;2023-12-20T04:55:28;116.50;;;63.97;;
40204;SDS011;26963;42.666;23.366;2023-12-20T04:57:54;123.67;;;62.00;;
40204;SDS011;26963;42.666;23.366;2023-12-20T05:00:20;104.60;;;60.53;;
40204;SDS011;26963;42.666;23.366;2023-12-20T05:02:45;120.17;;;61.40;;
40204;SDS011;26963;42.666;23.366;2023-12-20T05:05:11;124.53;;;59.80;;
40204;SDS011;26963;42.666;23.366;2023-12-20T05:07:36;109.57;;;59.47;;
40204;SDS011;26963;42.666;23.366;2023-12-20T05:10:03;116.17;;;57.47;;
40204;SDS011;26963;42.666;23.366;2023-12-20T05:12:29;121.10;;;56.20;;
40204;SDS011;26963;42.666;23.366;2023-12-20T05:14:55;106.43;;;59.07;;
40204;SDS011;26963;42.666;23.366;2023-12-20T05:17:21;116.77;;;57.90;;
40204;SDS011;26963;42.666;23.366;2023-12-20T05:19:47;94.87;;;56.73;;
40204;SDS011;26963;42.666;23.366;2023-12-20T05:22:12;87.60;;;53.77;;
40204;SDS011;26963;42.666;23.366;2023-12-20T05:24:38;99.77;;;53.23;;
40204;SDS011;26963;42.666;23.366;2023-12-20T05:27:04;97.57;;;50.47;;
40204;SDS011;26963;42.666;23.366;2023-12-20T05:29:30;83.87;;;49.10;;
40204;SDS011;26963;42.666;23.366;2023-12-20T05:31:55;76.80;;;49.83;;
40204;SDS011;26963;42.666;23.366;2023-12-20T05:34:21;76.13;;;47.07;;
40204;SDS011;26963;42.666;23.366;2023-12-20T05:36:46;78.90;;;46.40;;
40204;SDS011;26963;42.666;23.366;2023-12-20T05:39:12;74.27;;;46.43;;
40204;SDS011;26963;42.666;23.366;2023-12-20T05:41:37;75.40;;;45.90;;
40204;SDS011;26963;42.666;23.366;2023-12-20T05:44:03;67.40;;;42.80;;
40204;SDS011;26963;42.666;23.366;2023-12-20T05:46:29;70.87;;;44.30;;
40204;SDS011;26963;42.666;23.366;2023-12-20T05:48:54;68.43;;;44.30;;
40204;SDS011;26963;42.666;23.366;2023-12-20T05:51:21;70.33;;;44.17;;
40204;SDS011;26963;42.666;23.366;2023-12-20T05:53:46;61.70;;;39.90;;
40204;SDS011;26963;42.666;23.366;2023-12-20T05:56:12;68.63;;;41.17;;
40204;SDS011;26963;42.666;23.366;2023-12-20T05:58:38;66.50;;;40.90;;
40204;SDS011;26963;42.666;23.366;2023-12-20T06:01:05;64.17;;;38.83;;
40204;SDS011;26963;42.666;23.366;2023-12-20T06:03:30;62.43;;;38.07;;
40204;SDS011;26963;42.666;23.366;2023-12-20T06:05:56;62.23;;;39.70;;
40204;SDS011;26963;42.666;23.366;2023-12-20T06:08:22;59.10;;;38.40;;
40204;SDS011;26963;42.666;23.366;2023-12-20T06:10:47;65.67;;;39.33;;
40204;SDS011;26963;42.666;23.366;2023-12-20T06:13:14;63.63;;;38.97;;
40204;SDS011;26963;42.666;23.366;2023-12-20T06:15:39;63.50;;;38.50;;
40204;SDS011;26963;42.666;23.366;2023-12-20T06:18:05;65.57;;;38.37;;
40204;SDS011;26963;42.666;23.366;2023-12-20T06:20:32;57.80;;;37.07;;
40204;SDS011;26963;42.666;23.366;2023-12-20T06:22:57;61.80;;;37.90;;
40204;SDS011;26963;42.666;23.366;2023-12-20T06:25:23;60.87;;;36.67;;
40204;SDS011;26963;42.666;23.366;2023-12-20T06:27:49;63.50;;;38.20;;
40204;SDS011;26963;42.666;23.366;2023-12-20T06:30:15;57.90;;;37.33;;
40204;SDS011;26963;42.666;23.366;2023-12-20T06:32:41;60.43;;;38.10;;
40204;SDS011;26963;42.666;23.366;2023-12-20T06:35:08;66.13;;;36.17;;
40204;SDS011;26963;42.666;23.366;2023-12-20T06:37:34;80.73;;;35.77;;
40204;SDS011;26963;42.666;23.366;2023-12-20T06:40:00;67.13;;;36.13;;
40204;SDS011;26963;42.666;23.366;2023-12-20T06:42:26;59.83;;;35.87;;
40204;SDS011;26963;42.666;23.366;2023-12-20T06:44:52;58.83;;;35.57;;
40204;SDS011;26963;42.666;23.366;2023-12-20T06:47:17;59.73;;;37.40;;
40204;SDS011;26963;42.666;23.366;2023-12-20T06:49:43;67.43;;;37.07;;
40204;SDS011;26963;42.666;23.366;2023-12-20T06:52:09;57.33;;;35.60;;
40204;SDS011;26963;42.666;23.366;2023-12-20T06:54:34;62.40;;;37.17;;
40204;SDS011;26963;42.666;23.366;2023-12-20T06:57:00;53.80;;;35.40;;
40204;SDS011;26963;42.666;23.366;2023-12-20T06:59:28;59.60;;;36.53;;
40204;SDS011;26963;42.666;23.366;2023-12-20T07:01:54;59.27;;;36.47;;
40204;SDS011;26963;42.666;23.366;2023-12-20T07:04:20;55.07;;;34.43;;
40204;SDS011;26963;42.666;23.366;2023-12-20T07:06:50;46.70;;;31.83;;
40204;SDS011;26963;42.666;23.366;2023-12-20T07:09:22;49.10;;;31.73;;
40204;SDS011;26963;42.666;23.366;2023-12-20T07:11:48;49.03;;;32.07;;
40204;SDS011;26963;42.666;23.366;2023-12-20T07:14:14;56.67;;;36.73;;
40204;SDS011;26963;42.666;23.366;2023-12-20T07:16:40;59.60;;;37.27;;
40204;SDS011;26963;42.666;23.366;2023-12-20T07:19:05;60.33;;;35.42;;
40204;SDS011;26963;42.666;23.366;2023-12-20T07:21:31;55.17;;;33.70;;
40204;SDS011;26963;42.666;23.366;2023-12-20T07:23:57;59.40;;;35.85;;
40204;SDS011;26963;42.666;23.366;2023-12-20T07:26:23;53.13;;;36.65;;
40204;SDS011;26963;42.666;23.366;2023-12-20T07:28:48;55.78;;;36.13;;
40204;SDS011;26963;42.666;23.366;2023-12-20T07:31:15;53.72;;;34.60;;
40204;SDS011;26963;42.666;23.366;2023-12-20T07:33:41;54.20;;;35.70;;
40204;SDS011;26963;42.666;23.366;2023-12-20T07:36:07;54.65;;;35.30;;
40204;SDS011;26963;42.666;23.366;2023-12-20T07:38:34;54.97;;;35.17;;
40204;SDS011;26963;42.666;23.366;2023-12-20T07:40:59;53.15;;;34.63;;
40204;SDS011;26963;42.666;23.366;2023-12-20T07:43:25;61.53;;;36.53;;
40204;SDS011;26963;42.666;23.366;2023-12-20T07:45:51;61.07;;;36.77;;
40204;SDS011;26963;42.666;23.366;2023-12-20T07:48:16;53.97;;;35.73;;
40204;SDS011;26963;42.666;23.366;2023-12-20T07:50:42;59.27;;;37.60;;
40204;SDS011;26963;42.666;23.366;2023-12-20T07:53:08;58.83;;;36.47;;
40204;SDS011;26963;42.666;23.366;2023-12-20T07:55:33;63.83;;;37.93;;
40204;SDS011;26963;42.666;23.366;2023-12-20T07:57:59;62.63;;;37.50;;
40204;SDS011;26963;42.666;23.366;2023-12-20T08:00:25;67.53;;;38.47;;
40204;SDS011;26963;42.666;23.366;2023-12-20T08:02:51;70.20;;;39.37;;
40204;SDS011;26963;42.666;23.366;2023-12-20T08:05:17;73.10;;;40.23;;
40204;SDS011;26963;42.666;23.366;2023-12-20T08:07:43;73.63;;;40.80;;
40204;SDS011;26963;42.666;23.366;2023-12-20T08:10:09;74.63;;;41.43;;
40204;SDS011;26963;42.666;23.366;2023-12-20T08:12:34;74.13;;;41.73;;
40204;SDS011;26963;42.666;23.366;2023-12-20T08:15:00;71.33;;;40.30;;
40204;SDS011;26963;42.666;23.366;2023-12-20T08:17:26;71.65;;;42.05;;
40204;SDS011;26963;42.666;23.366;2023-12-20T08:19:52;81.90;;;42.70;;
40204;SDS011;26963;42.666;23.366;2023-12-20T08:22:18;78.43;;;45.00;;
40204;SDS011;26963;42.666;23.366;2023-12-20T08:24:43;96.57;;;46.67;;
40204;SDS011;26963;42.666;23.366;2023-12-20T08:27:09;85.43;;;45.73;;
40204;SDS011;26963;42.666;23.366;2023-12-20T08:29:35;86.27;;;45.73;;
40204;SDS011;26963;42.666;23.366;2023-12-20T08:32:01;82.33;;;46.77;;
40204;SDS011;26963;42.666;23.366;2023-12-20T08:34:26;83.10;;;46.07;;
40204;SDS011;26963;42.666;23.366;2023-12-20T08:36:52;82.80;;;46.37;;
40204;SDS011;26963;42.666;23.366;2023-12-20T08:39:18;82.13;;;45.00;;
40204;SDS011;26963;42.666;23.366;2023-12-20T08:41:43;85.03;;;46.27;;
40204;SDS011;26963;42.666;23.366;2023-12-20T08:44:09;82.70;;;45.17;;
40204;SDS011;26963;42.666;23.366;2023-12-20T08:46:35;88.43;;;47.07;;
40204;SDS011;26963;42.666;23.366;2023-12-20T08:49:01;96.70;;;47.97;;
40204;SDS011;26963;42.666;23.366;2023-12-20T08:51:27;87.33;;;46.97;;
40204;SDS011;26963;42.666;23.366;2023-12-20T08:53:53;91.33;;;48.10;;
40204;SDS011;26963;42.666;23.366;2023-12-20T08:56:19;89.00;;;45.97;;
40204;SDS011;26963;42.666;23.366;2023-12-20T08:58:45;100.00;;;46.67;;
40204;SDS011;26963;42.666;23.366;2023-12-20T09:01:12;86.20;;;46.23;;
40204;SDS011;26963;42.666;23.366;2023-12-20T09:03:38;85.13;;;46.43;;
40204;SDS011;26963;42.666;23.366;2023-12-20T09:06:05;91.93;;;48.23;;
40204;SDS011;26963;42.666;23.366;2023-12-20T09:08:30;86.03;;;45.70;;
40204;SDS011;26963;42.666;23.366;2023-12-20T09:10:56;90.10;;;46.87;;
40204;SDS011;26963;42.666;23.366;2023-12-20T09:13:22;95.13;;;46.70;;
40204;SDS011;26963;42.666;23.366;2023-12-20T09:15:56;78.20;;;44.23;;
40204;SDS011;26963;42.666;23.366;2023-12-20T09:18:22;86.17;;;43.90;;
40204;SDS011;26963;42.666;23.366;2023-12-20T09:20:48;86.80;;;46.40;;
40204;SDS011;26963;42.666;23.366;2023-12-20T09:23:13;93.13;;;48.13;;
40204;SDS011;26963;42.666;23.366;2023-12-20T09:25:39;93.77;;;48.43;;
40204;SDS011;26963;42.666;23.366;2023-12-20T09:28:04;92.10;;;47.97;;
40204;SDS011;26963;42.666;23.366;2023-12-20T09:30:33;98.80;;;48.97;;
40204;SDS011;26963;42.666;23.366;2023-12-20T09:33:00;91.60;;;48.37;;
40204;SDS011;26963;42.666;23.366;2023-12-20T09:39:24;94.87;;;47.93;;
40204;SDS011;26963;42.666;23.366;2023-12-20T09:42:11;97.57;;;47.70;;
40204;SDS011;26963;42.666;23.366;2023-12-20T09:44:37;97.43;;;50.80;;
40204;SDS011;26963;42.666;23.366;2023-12-20T09:47:06;95.10;;;48.90;;
40204;SDS011;26963;42.666;23.366;2023-12-20T09:49:32;92.23;;;48.40;;
40204;SDS011;26963;42.666;23.366;2023-12-20T09:51:58;92.03;;;47.43;;
40204;SDS011;26963;42.666;23.366;2023-12-20T09:54:25;97.10;;;50.33;;
40204;SDS011;26963;42.666;23.366;2023-12-20T09:56:52;95.90;;;47.57;;
40204;SDS011;26963;42.666;23.366;2023-12-20T09:59:17;94.70;;;49.83;;
40204;SDS011;26963;42.666;23.366;2023-12-20T10:01:43;94.63;;;48.73;;
40204;SDS011;26963;42.666;23.366;2023-12-20T10:04:09;92.40;;;47.67;;
40204;SDS011;26963;42.666;23.366;2023-12-20T10:06:46;88.87;;;47.80;;
40204;SDS011;26963;42.666;23.366;2023-12-20T10:09:12;87.90;;;47.37;;
40204;SDS011;26963;42.666;23.366;2023-12-20T10:11:39;92.27;;;48.70;;
40204;SDS011;26963;42.666;23.366;2023-12-20T10:14:08;94.80;;;49.50;;
40204;SDS011;26963;42.666;23.366;2023-12-20T10:16:35;85.72;;;48.53;;
40204;SDS011;26963;42.666;23.366;2023-12-20T10:19:01;95.82;;;50.67;;
40204;SDS011;26963;42.666;23.366;2023-12-20T10:21:27;92.22;;;50.33;;
40204;SDS011;26963;42.666;23.366;2023-12-20T10:23:57;90.55;;;50.58;;
40204;SDS011;26963;42.666;23.366;2023-12-20T10:26:26;88.28;;;49.70;;
40204;SDS011;26963;42.666;23.366;2023-12-20T10:28:55;114.15;;;64.18;;
40204;SDS011;26963;42.666;23.366;2023-12-20T10:31:31;94.13;;;55.45;;
40204;SDS011;26963;42.666;23.366;2023-12-20T10:33:59;93.95;;;55.92;;
40204;SDS011;26963;42.666;23.366;2023-12-20T10:36:27;91.50;;;53.38;;
40204;SDS011;26963;42.666;23.366;2023-12-20T10:38:54;90.70;;;52.65;;
40204;SDS011;26963;42.666;23.366;2023-12-20T10:41:26;87.93;;;52.28;;
40204;SDS011;26963;42.666;23.366;2023-12-20T10:43:55;86.38;;;52.42;;
40204;SDS011;26963;42.666;23.366;2023-12-20T10:46:23;83.13;;;50.72;;
40204;SDS011;26963;42.666;23.366;2023-12-20T10:48:52;89.88;;;48.92;;
40204;SDS011;26963;42.666;23.366;2023-12-20T10:51:19;87.93;;;50.25;;
40204;SDS011;26963;42.666;23.366;2023-12-20T10:53:49;80.78;;;50.15;;
40204;SDS011;26963;42.666;23.366;2023-12-20T10:56:16;91.03;;;51.20;;
40204;SDS011;26963;42.666;23.366;2023-12-20T10:58:49;102.95;;;57.15;;
40204;SDS011;26963;42.666;23.366;2023-12-20T11:01:19;91.30;;;50.88;;
40204;SDS011;26963;42.666;23.366;2023-12-20T11:03:49;89.07;;;50.35;;
40204;SDS011;26963;42.666;23.366;2023-12-20T11:08:51;80.85;;;49.63;;
40204;SDS011;26963;42.666;23.366;2023-12-20T11:17:12;89.40;;;50.97;;
40204;SDS011;26963;42.666;23.366;2023-12-20T11:22:25;80.63;;;49.45;;
40204;SDS011;26963;42.666;23.366;2023-12-20T11:24:57;90.22;;;50.97;;
40204;SDS011;26963;42.666;23.366;2023-12-20T11:27:28;88.65;;;53.17;;
40204;SDS011;26963;42.666;23.366;2023-12-20T11:29:56;87.93;;;52.25;;
40204;SDS011;26963;42.666;23.366;2023-12-20T11:34:56;97.97;;;56.08;;
40204;SDS011;26963;42.666;23.366;2023-12-20T11:37:29;91.55;;;54.47;;
40204;SDS011;26963;42.666;23.366;2023-12-20T11:40:04;90.60;;;56.40;;
40204;SDS011;26963;42.666;23.366;2023-12-20T11:42:33;93.00;;;55.42;;
40204;SDS011;26963;42.666;23.366;2023-12-20T11:45:02;98.22;;;55.83;;
40204;SDS011;26963;42.666;23.366;2023-12-20T11:47:29;99.82;;;55.03;;
40204;SDS011;26963;42.666;23.366;2023-12-20T11:49:56;101.68;;;57.35;;
40204;SDS011;26963;42.666;23.366;2023-12-20T11:52:22;100.68;;;59.50;;
40204;SDS011;26963;42.666;23.366;2023-12-20T11:54:48;104.80;;;58.30;;
40204;SDS011;26963;42.666;23.366;2023-12-20T11:57:13;117.47;;;67.57;;
40204;SDS011;26963;42.666;23.366;2023-12-20T11:59:39;113.88;;;65.28;;
40204;SDS011;26963;42.666;23.366;2023-12-20T12:02:05;113.38;;;61.80;;
40204;SDS011;26963;42.666;23.366;2023-12-20T12:04:31;103.38;;;59.38;;
40204;SDS011;26963;42.666;23.366;2023-12-20T12:06:57;99.85;;;56.05;;
40204;SDS011;26963;42.666;23.366;2023-12-20T12:09:22;96.80;;;57.10;;
40204;SDS011;26963;42.666;23.366;2023-12-20T12:11:48;102.47;;;56.58;;
40204;SDS011;26963;42.666;23.366;2023-12-20T12:14:14;98.85;;;55.60;;
40204;SDS011;26963;42.666;23.366;2023-12-20T12:16:41;86.65;;;50.65;;
40204;SDS011;26963;42.666;23.366;2023-12-20T12:19:19;88.60;;;48.95;;
40204;SDS011;26963;42.666;23.366;2023-12-20T12:21:46;78.63;;;46.75;;
40204;SDS011;26963;42.666;23.366;2023-12-20T12:24:14;76.13;;;47.40;;
40204;SDS011;26963;42.666;23.366;2023-12-20T12:27:00;82.97;;;49.17;;
40204;SDS011;26963;42.666;23.366;2023-12-20T12:29:27;87.95;;;51.28;;
40204;SDS011;26963;42.666;23.366;2023-12-20T12:31:53;88.93;;;53.60;;
40204;SDS011;26963;42.666;23.366;2023-12-20T12:34:19;82.65;;;48.38;;
40204;SDS011;26963;42.666;23.366;2023-12-20T12:36:45;79.30;;;48.33;;
40204;SDS011;26963;42.666;23.366;2023-12-20T12:39:14;66.22;;;42.80;;
40204;SDS011;26963;42.666;23.366;2023-12-20T12:41:41;81.40;;;47.88;;
40204;SDS011;26963;42.666;23.366;2023-12-20T12:44:06;79.75;;;48.47;;
40204;SDS011;26963;42.666;23.366;2023-12-20T12:46:32;85.97;;;49.03;;
40204;SDS011;26963;42.666;23.366;2023-12-20T12:48:58;83.32;;;48.35;;
40204;SDS011;26963;42.666;23.366;2023-12-20T12:51:23;94.43;;;55.35;;
40204;SDS011;26963;42.666;23.366;2023-12-20T12:53:49;94.18;;;52.78;;
40204;SDS011;26963;42.666;23.366;2023-12-20T12:56:15;94.68;;;53.38;;
40204;SDS011;26963;42.666;23.366;2023-12-20T12:58:40;91.47;;;52.53;;
40204;SDS011;26963;42.666;23.366;2023-12-20T13:01:06;100.13;;;56.63;;
40204;SDS011;26963;42.666;23.366;2023-12-20T13:03:32;103.38;;;57.97;;
40204;SDS011;26963;42.666;23.366;2023-12-20T13:05:59;105.38;;;58.63;;
40204;SDS011;26963;42.666;23.366;2023-12-20T13:08:25;107.20;;;57.63;;
40204;SDS011;26963;42.666;23.366;2023-12-20T13:10:51;104.38;;;58.03;;
40204;SDS011;26963;42.666;23.366;2023-12-20T13:13:16;114.90;;;62.08;;
40204;SDS011;26963;42.666;23.366;2023-12-20T13:15:42;110.38;;;59.20;;
40204;SDS011;26963;42.666;23.366;2023-12-20T13:18:13;104.25;;;57.00;;
40204;SDS011;26963;42.666;23.366;2023-12-20T13:20:38;104.35;;;57.78;;
40204;SDS011;26963;42.666;23.366;2023-12-20T13:23:05;101.90;;;55.50;;
40204;SDS011;26963;42.666;23.366;2023-12-20T13:25:31;110.33;;;56.33;;
40204;SDS011;26963;42.666;23.366;2023-12-20T13:27:56;108.57;;;56.13;;
40204;SDS011;26963;42.666;23.366;2023-12-20T13:30:22;102.72;;;55.80;;
40204;SDS011;26963;42.666;23.366;2023-12-20T13:32:48;102.78;;;55.45;;
40204;SDS011;26963;42.666;23.366;2023-12-20T13:35:14;98.55;;;53.75;;
40204;SDS011;26963;42.666;23.366;2023-12-20T13:37:40;98.00;;;54.28;;
40204;SDS011;26963;42.666;23.366;2023-12-20T13:40:09;92.28;;;51.25;;
40204;SDS011;26963;42.666;23.366;2023-12-20T13:42:35;96.05;;;52.88;;
40204;SDS011;26963;42.666;23.366;2023-12-20T13:45:01;100.97;;;52.85;;
40204;SDS011;26963;42.666;23.366;2023-12-20T13:47:28;104.13;;;53.97;;
40204;SDS011;26963;42.666;23.366;2023-12-20T13:49:54;101.07;;;52.73;;
40204;SDS011;26963;42.666;23.366;2023-12-20T13:52:21;106.80;;;55.57;;
40204;SDS011;26963;42.666;23.366;2023-12-20T13:54:46;109.03;;;55.90;;
40204;SDS011;26963;42.666;23.366;2023-12-20T13:57:13;110.37;;;56.53;;
40204;SDS011;26963;42.666;23.366;2023-12-20T13:59:38;118.63;;;52.87;;
40204;SDS011;26963;42.666;23.366;2023-12-20T14:02:04;110.87;;;54.83;;
40204;SDS011;26963;42.666;23.366;2023-12-20T14:04:30;103.00;;;55.37;;
40204;SDS011;26963;42.666;23.366;2023-12-20T14:06:56;105.67;;;55.83;;
40204;SDS011;26963;42.666;23.366;2023-12-20T14:09:22;104.35;;;52.88;;
40204;SDS011;26963;42.666;23.366;2023-12-20T14:11:48;123.07;;;55.05;;
40204;SDS011;26963;42.666;23.366;2023-12-20T14:14:14;101.53;;;53.13;;
40204;SDS011;26963;42.666;23.366;2023-12-20T14:16:39;98.35;;;51.92;;
40204;SDS011;26963;42.666;23.366;2023-12-20T14:19:05;97.75;;;51.55;;